sensor_id;sensor_type;location;lat;lon;timestamp;pressure;altitude;pressure_sealevel;temperature;humidity
59170;BME280;52474;52.236;5.114;2022-11-15T00:00:38;100864.03;;;5.83;100.00
59170;BME280;52474;52.236;5.114;2022-11-15T00:03:25;100857.50;;;5.76;100.00
59170;BME280;52474;52.236;5.114;2022-11-15T00:06:11;100870.88;;;5.86;100.00
59170;BME280;52474;52.236;5.114;2022-11-15T00:08:57;100868.97;;;5.88;100.00
59170;BME280;52474;52.236;5.114;2022-11-15T00:11:42;100851.28;;;5.77;100.00
59170;BME280;52474;52.236;5.114;2022-11-15T00:14:26;100858.38;;;5.89;100.00
59170;BME280;52474;52.236;5.114;2022-11-15T00:17:10;100848.69;;;5.90;100.00
59170;BME280;52474;52.236;5.114;2022-11-15T00:19:54;100845.44;;;5.86;100.00
59170;BME280;52474;52.236;5.114;2022-11-15T00:22:39;100835.97;;;5.84;100.00
59170;BME280;52474;52.236;5.114;2022-11-15T00:25:24;100853.97;;;5.90;100.00
59170;BME280;52474;52.236;5.114;2022-11-15T00:28:08;100844.00;;;5.95;100.00
59170;BME280;52474;52.236;5.114;2022-11-15T00:30:53;100849.44;;;5.92;100.00
59170;BME280;52474;52.236;5.114;2022-11-15T00:33:37;100839.44;;;5.84;100.00
59170;BME280;52474;52.236;5.114;2022-11-15T00:36:22;100841.41;;;5.80;100.00
59170;BME280;52474;52.236;5.114;2022-11-15T00:39:07;100859.22;;;5.90;100.00
59170;BME280;52474;52.236;5.114;2022-11-15T00:41:54;100849.66;;;5.89;100.00
59170;BME280;52474;52.236;5.114;2022-11-15T00:44:38;100832.59;;;5.81;100.00
59170;BME280;52474;52.236;5.114;2022-11-15T00:47:22;100853.88;;;5.91;100.00
59170;BME280;52474;52.236;5.114;2022-11-15T00:50:07;100829.75;;;5.85;100.00
59170;BME280;52474;52.236;5.114;2022-11-15T00:52:51;100836.31;;;5.92;100.00
59170;BME280;52474;52.236;5.114;2022-11-15T00:55:36;100830.03;;;5.94;100.00
59170;BME280;52474;52.236;5.114;2022-11-15T00:58:20;100810.91;;;5.78;100.00
59170;BME280;52474;52.236;5.114;2022-11-15T01:01:10;100826.34;;;5.97;100.00
59170;BME280;52474;52.236;5.114;2022-11-15T01:03:55;100816.81;;;5.96;100.00
59170;BME280;52474;52.236;5.114;2022-11-15T01:06:39;100831.53;;;5.98;100.00
59170;BME280;52474;52.236;5.114;2022-11-15T01:09:24;100826.16;;;6.00;100.00
59170;BME280;52474;52.236;5.114;2022-11-15T01:12:08;100817.44;;;5.99;100.00
59170;BME280;52474;52.236;5.114;2022-11-15T01:14:53;100807.44;;;6.05;100.00
59170;BME280;52474;52.236;5.114;2022-11-15T01:17:37;100823.00;;;6.08;100.00
59170;BME280;52474;52.236;5.114;2022-11-15T01:20:22;100816.81;;;6.09;100.00
59170;BME280;52474;52.236;5.114;2022-11-15T01:23:06;100816.59;;;6.12;100.00
59170;BME280;52474;52.236;5.114;2022-11-15T01:25:50;100809.47;;;6.14;100.00
59170;BME280;52474;52.236;5.114;2022-11-15T01:28:36;100812.94;;;6.14;100.00
59170;BME280;52474;52.236;5.114;2022-11-15T01:31:21;100806.00;;;6.13;100.00
59170;BME280;52474;52.236;5.114;2022-11-15T01:34:05;100807.44;;;6.17;100.00
59170;BME280;52474;52.236;5.114;2022-11-15T01:36:49;100794.63;;;6.13;100.00
59170;BME280;52474;52.236;5.114;2022-11-15T01:39:33;100803.59;;;6.23;100.00
59170;BME280;52474;52.236;5.114;2022-11-15T01:42:18;100800.75;;;6.26;100.00
59170;BME280;52474;52.236;5.114;2022-11-15T01:45:02;100801.50;;;6.28;100.00
59170;BME280;52474;52.236;5.114;2022-11-15T01:47:52;100782.94;;;6.30;100.00
59170;BME280;52474;52.236;5.114;2022-11-15T01:50:37;100785.19;;;6.36;100.00
59170;BME280;52474;52.236;5.114;2022-11-15T01:53:23;100782.22;;;6.40;100.00
59170;BME280;52474;52.236;5.114;2022-11-15T01:56:12;100784.56;;;6.45;100.00
59170;BME280;52474;52.236;5.114;2022-11-15T01:58:58;100774.03;;;6.45;100.00
59170;BME280;52474;52.236;5.114;2022-11-15T02:01:45;100768.88;;;6.43;100.00
59170;BME280;52474;52.236;5.114;2022-11-15T02:04:35;100781.25;;;6.54;100.00
59170;BME280;52474;52.236;5.114;2022-11-15T02:07:22;100780.34;;;6.55;100.00
59170;BME280;52474;52.236;5.114;2022-11-15T02:10:09;100772.13;;;6.60;100.00
59170;BME280;52474;52.236;5.114;2022-11-15T02:12:55;100764.41;;;6.57;100.00
59170;BME280;52474;52.236;5.114;2022-11-15T02:16:09;100768.63;;;6.72;100.00
59170;BME280;52474;52.236;5.114;2022-11-15T02:21:48;100762.91;;;6.78;100.00
59170;BME280;52474;52.236;5.114;2022-11-15T02:25:05;100751.09;;;6.84;100.00
59170;BME280;52474;52.236;5.114;2022-11-15T02:34:21;100739.50;;;6.99;100.00
59170;BME280;52474;52.236;5.114;2022-11-15T02:37:16;100725.66;;;7.08;100.00
59170;BME280;52474;52.236;5.114;2022-11-15T02:42:55;100710.75;;;7.20;100.00
59170;BME280;52474;52.236;5.114;2022-11-15T02:46:22;100712.94;;;7.26;100.00
59170;BME280;52474;52.236;5.114;2022-11-15T02:49:32;100709.75;;;7.34;100.00
59170;BME280;52474;52.236;5.114;2022-11-15T02:52:21;100702.78;;;7.33;100.00
59170;BME280;52474;52.236;5.114;2022-11-15T02:55:26;100701.16;;;7.43;100.00
59170;BME280;52474;52.236;5.114;2022-11-15T03:01:15;100701.81;;;7.58;100.00
59170;BME280;52474;52.236;5.114;2022-11-15T03:04:33;100702.50;;;7.60;100.00
59170;BME280;52474;52.236;5.114;2022-11-15T03:13:47;100699.19;;;7.69;100.00
59170;BME280;52474;52.236;5.114;2022-11-15T03:17:03;100712.13;;;7.72;100.00
59170;BME280;52474;52.236;5.114;2022-11-15T03:19:52;100711.69;;;7.79;100.00
59170;BME280;52474;52.236;5.114;2022-11-15T03:22:40;100703.66;;;7.80;100.00
59170;BME280;52474;52.236;5.114;2022-11-15T03:25:28;100710.38;;;7.84;100.00
59170;BME280;52474;52.236;5.114;2022-11-15T03:28:19;100704.75;;;7.89;100.00
59170;BME280;52474;52.236;5.114;2022-11-15T03:31:04;100673.31;;;7.74;100.00
59170;BME280;52474;52.236;5.114;2022-11-15T03:34:36;100704.53;;;8.03;100.00
59170;BME280;52474;52.236;5.114;2022-11-15T03:37:21;100697.34;;;8.05;100.00
59170;BME280;52474;52.236;5.114;2022-11-15T03:40:06;100699.75;;;8.20;100.00
59170;BME280;52474;52.236;5.114;2022-11-15T03:43:04;100706.59;;;8.22;100.00
59170;BME280;52474;52.236;5.114;2022-11-15T03:45:53;100710.41;;;8.29;100.00
59170;BME280;52474;52.236;5.114;2022-11-15T03:48:45;100703.38;;;8.30;100.00
59170;BME280;52474;52.236;5.114;2022-11-15T03:51:31;100702.03;;;8.35;100.00
59170;BME280;52474;52.236;5.114;2022-11-15T03:54:15;100698.56;;;8.46;100.00
59170;BME280;52474;52.236;5.114;2022-11-15T03:57:00;100695.09;;;8.57;100.00
59170;BME280;52474;52.236;5.114;2022-11-15T03:59:44;100703.97;;;8.67;100.00
59170;BME280;52474;52.236;5.114;2022-11-15T04:02:28;100691.34;;;8.71;100.00
59170;BME280;52474;52.236;5.114;2022-11-15T04:05:12;100690.25;;;8.85;100.00
59170;BME280;52474;52.236;5.114;2022-11-15T04:07:57;100692.00;;;8.95;100.00
59170;BME280;52474;52.236;5.114;2022-11-15T04:10:41;100694.03;;;9.03;100.00
59170;BME280;52474;52.236;5.114;2022-11-15T04:13:26;100690.78;;;9.11;100.00
59170;BME280;52474;52.236;5.114;2022-11-15T04:16:10;100686.06;;;9.14;100.00
59170;BME280;52474;52.236;5.114;2022-11-15T04:18:54;100686.91;;;9.15;100.00
59170;BME280;52474;52.236;5.114;2022-11-15T04:21:58;100689.28;;;9.18;100.00
59170;BME280;52474;52.236;5.114;2022-11-15T04:25:05;100685.09;;;9.15;100.00
59170;BME280;52474;52.236;5.114;2022-11-15T04:27:49;100686.34;;;9.11;100.00
59170;BME280;52474;52.236;5.114;2022-11-15T04:30:34;100673.25;;;9.10;100.00
59170;BME280;52474;52.236;5.114;2022-11-15T04:33:18;100669.06;;;9.07;100.00
59170;BME280;52474;52.236;5.114;2022-11-15T04:36:03;100680.91;;;9.13;100.00
59170;BME280;52474;52.236;5.114;2022-11-15T04:39:06;100670.59;;;9.10;100.00
59170;BME280;52474;52.236;5.114;2022-11-15T04:41:50;100675.25;;;9.17;100.00
59170;BME280;52474;52.236;5.114;2022-11-15T04:44:35;100666.13;;;9.21;100.00
59170;BME280;52474;52.236;5.114;2022-11-15T04:47:19;100669.34;;;9.25;100.00
59170;BME280;52474;52.236;5.114;2022-11-15T04:50:04;100661.78;;;9.20;100.00
59170;BME280;52474;52.236;5.114;2022-11-15T04:52:53;100676.44;;;9.24;100.00
59170;BME280;52474;52.236;5.114;2022-11-15T04:55:37;100672.22;;;9.22;100.00
59170;BME280;52474;52.236;5.114;2022-11-15T04:58:22;100671.06;;;9.15;100.00
59170;BME280;52474;52.236;5.114;2022-11-15T05:01:11;100668.69;;;9.12;100.00
59170;BME280;52474;52.236;5.114;2022-11-15T05:03:58;100673.13;;;9.11;100.00
59170;BME280;52474;52.236;5.114;2022-11-15T05:07:01;100694.22;;;9.22;100.00
59170;BME280;52474;52.236;5.114;2022-11-15T05:09:46;100685.56;;;9.20;100.00
59170;BME280;52474;52.236;5.114;2022-11-15T05:12:30;100682.09;;;9.20;100.00
59170;BME280;52474;52.236;5.114;2022-11-15T05:15:14;100693.25;;;9.23;100.00
59170;BME280;52474;52.236;5.114;2022-11-15T05:18:00;100694.81;;;9.26;100.00
59170;BME280;52474;52.236;5.114;2022-11-15T05:20:44;100698.16;;;9.28;100.00
59170;BME280;52474;52.236;5.114;2022-11-15T05:23:29;100698.16;;;9.28;100.00
59170;BME280;52474;52.236;5.114;2022-11-15T05:26:16;100692.28;;;9.24;100.00
59170;BME280;52474;52.236;5.114;2022-11-15T05:29:01;100684.50;;;9.23;100.00
59170;BME280;52474;52.236;5.114;2022-11-15T05:31:46;100708.56;;;9.41;100.00
59170;BME280;52474;52.236;5.114;2022-11-15T05:34:30;100701.34;;;9.43;100.00
59170;BME280;52474;52.236;5.114;2022-11-15T05:37:15;100691.47;;;9.45;100.00
59170;BME280;52474;52.236;5.114;2022-11-15T05:40:00;100690.25;;;9.49;100.00
59170;BME280;52474;52.236;5.114;2022-11-15T05:42:44;100696.00;;;9.54;100.00
59170;BME280;52474;52.236;5.114;2022-11-15T05:45:29;100693.88;;;9.48;100.00
59170;BME280;52474;52.236;5.114;2022-11-15T05:48:15;100693.81;;;9.59;100.00
59170;BME280;52474;52.236;5.114;2022-11-15T05:51:01;100694.91;;;9.57;100.00
59170;BME280;52474;52.236;5.114;2022-11-15T05:53:47;100710.97;;;9.65;100.00
59170;BME280;52474;52.236;5.114;2022-11-15T05:56:32;100696.31;;;9.61;100.00
59170;BME280;52474;52.236;5.114;2022-11-15T05:59:16;100694.69;;;9.70;100.00
59170;BME280;52474;52.236;5.114;2022-11-15T06:02:01;100688.00;;;9.65;100.00
59170;BME280;52474;52.236;5.114;2022-11-15T06:04:45;100698.06;;;9.72;100.00
59170;BME280;52474;52.236;5.114;2022-11-15T06:07:30;100707.31;;;9.77;100.00
59170;BME280;52474;52.236;5.114;2022-11-15T06:10:14;100671.25;;;9.55;100.00
59170;BME280;52474;52.236;5.114;2022-11-15T06:13:03;100713.88;;;9.83;100.00
59170;BME280;52474;52.236;5.114;2022-11-15T06:15:48;100704.50;;;9.79;100.00
59170;BME280;52474;52.236;5.114;2022-11-15T06:18:33;100716.97;;;9.88;100.00
59170;BME280;52474;52.236;5.114;2022-11-15T06:21:17;100721.44;;;9.87;100.00
59170;BME280;52474;52.236;5.114;2022-11-15T06:24:02;100716.25;;;9.86;100.00
59170;BME280;52474;52.236;5.114;2022-11-15T06:26:46;100722.38;;;9.86;100.00
59170;BME280;52474;52.236;5.114;2022-11-15T06:29:31;100717.22;;;9.85;100.00
59170;BME280;52474;52.236;5.114;2022-11-15T06:32:15;100714.59;;;9.85;100.00
59170;BME280;52474;52.236;5.114;2022-11-15T06:34:59;100717.22;;;9.85;100.00
59170;BME280;52474;52.236;5.114;2022-11-15T06:37:43;100729.09;;;9.91;100.00
59170;BME280;52474;52.236;5.114;2022-11-15T06:40:28;100728.53;;;9.87;100.00
59170;BME280;52474;52.236;5.114;2022-11-15T06:43:12;100731.19;;;9.87;100.00
59170;BME280;52474;52.236;5.114;2022-11-15T06:45:58;100730.91;;;9.90;100.00
59170;BME280;52474;52.236;5.114;2022-11-15T06:48:44;100741.22;;;9.93;100.00
59170;BME280;52474;52.236;5.114;2022-11-15T06:51:28;100746.25;;;9.96;100.00
59170;BME280;52474;52.236;5.114;2022-11-15T06:54:13;100741.94;;;9.95;100.00
59170;BME280;52474;52.236;5.114;2022-11-15T06:56:57;100743.59;;;9.96;100.00
59170;BME280;52474;52.236;5.114;2022-11-15T06:59:44;100730.75;;;9.92;100.00
59170;BME280;52474;52.236;5.114;2022-11-15T07:02:29;100740.56;;;10.01;100.00
59170;BME280;52474;52.236;5.114;2022-11-15T07:05:15;100741.41;;;10.01;100.00
59170;BME280;52474;52.236;5.114;2022-11-15T07:07:59;100737.09;;;10.00;100.00
59170;BME280;52474;52.236;5.114;2022-11-15T07:10:44;100746.47;;;10.04;100.00
59170;BME280;52474;52.236;5.114;2022-11-15T07:13:30;100745.41;;;9.96;100.00
59170;BME280;52474;52.236;5.114;2022-11-15T07:16:18;100744.31;;;9.98;100.00
59170;BME280;52474;52.236;5.114;2022-11-15T07:19:03;100750.31;;;10.00;100.00
59170;BME280;52474;52.236;5.114;2022-11-15T07:21:47;100756.38;;;9.91;100.00
59170;BME280;52474;52.236;5.114;2022-11-15T07:24:32;100748.59;;;9.89;100.00
59170;BME280;52474;52.236;5.114;2022-11-15T07:27:16;100758.53;;;9.97;100.00
59170;BME280;52474;52.236;5.114;2022-11-15T07:30:00;100749.44;;;9.90;100.00
59170;BME280;52474;52.236;5.114;2022-11-15T07:32:45;100755.66;;;9.89;100.00
59170;BME280;52474;52.236;5.114;2022-11-15T07:35:30;100755.81;;;9.87;100.00
59170;BME280;52474;52.236;5.114;2022-11-15T07:38:14;100745.66;;;9.72;100.00
59170;BME280;52474;52.236;5.114;2022-11-15T07:41:01;100746.56;;;9.82;100.00
59170;BME280;52474;52.236;5.114;2022-11-15T07:43:46;100735.88;;;9.83;100.00
59170;BME280;52474;52.236;5.114;2022-11-15T07:46:31;100739.78;;;9.89;100.00
59170;BME280;52474;52.236;5.114;2022-11-15T07:49:15;100749.50;;;10.00;100.00
59170;BME280;52474;52.236;5.114;2022-11-15T07:51:59;100736.72;;;10.05;100.00
59170;BME280;52474;52.236;5.114;2022-11-15T07:54:44;100747.63;;;10.12;100.00
59170;BME280;52474;52.236;5.114;2022-11-15T07:57:29;100747.16;;;10.06;100.00
59170;BME280;52474;52.236;5.114;2022-11-15T08:00:14;100737.88;;;10.12;100.00
59170;BME280;52474;52.236;5.114;2022-11-15T08:03:06;100732.56;;;10.12;100.00
59170;BME280;52474;52.236;5.114;2022-11-15T08:05:51;100735.41;;;10.20;100.00
59170;BME280;52474;52.236;5.114;2022-11-15T08:08:36;100731.66;;;10.23;100.00
59170;BME280;52474;52.236;5.114;2022-11-15T08:11:20;100699.06;;;10.01;100.00
59170;BME280;52474;52.236;5.114;2022-11-15T08:14:05;100711.91;;;10.27;100.00
59170;BME280;52474;52.236;5.114;2022-11-15T08:16:49;100715.84;;;10.32;100.00
59170;BME280;52474;52.236;5.114;2022-11-15T08:19:33;100723.84;;;10.42;100.00
59170;BME280;52474;52.236;5.114;2022-11-15T08:22:18;100724.16;;;10.49;100.00
59170;BME280;52474;52.236;5.114;2022-11-15T08:25:02;100725.25;;;10.46;100.00
59170;BME280;52474;52.236;5.114;2022-11-15T08:27:47;100718.81;;;10.39;100.00
59170;BME280;52474;52.236;5.114;2022-11-15T08:30:35;100703.84;;;10.28;100.00
59170;BME280;52474;52.236;5.114;2022-11-15T08:33:20;100709.88;;;10.40;100.00
59170;BME280;52474;52.236;5.114;2022-11-15T08:36:05;100707.56;;;10.47;100.00
59170;BME280;52474;52.236;5.114;2022-11-15T08:38:49;100699.50;;;10.58;100.00
59170;BME280;52474;52.236;5.114;2022-11-15T08:41:36;100689.63;;;10.70;100.00
59170;BME280;52474;52.236;5.114;2022-11-15T08:44:22;100697.31;;;10.83;100.00
59170;BME280;52474;52.236;5.114;2022-11-15T08:47:07;100689.56;;;10.91;100.00
59170;BME280;52474;52.236;5.114;2022-11-15T08:49:51;100689.28;;;11.13;100.00
59170;BME280;52474;52.236;5.114;2022-11-15T08:52:36;100677.16;;;11.21;100.00
59170;BME280;52474;52.236;5.114;2022-11-15T08:55:20;100687.91;;;11.19;100.00
59170;BME280;52474;52.236;5.114;2022-11-15T08:58:04;100691.97;;;11.33;100.00
59170;BME280;52474;52.236;5.114;2022-11-15T09:00:48;100667.81;;;11.16;100.00
59170;BME280;52474;52.236;5.114;2022-11-15T09:03:33;100687.06;;;11.38;100.00
59170;BME280;52474;52.236;5.114;2022-11-15T09:06:17;100679.41;;;11.45;100.00
59170;BME280;52474;52.236;5.114;2022-11-15T09:09:05;100674.50;;;11.59;100.00
59170;BME280;52474;52.236;5.114;2022-11-15T09:11:50;100678.34;;;11.85;100.00
59170;BME280;52474;52.236;5.114;2022-11-15T09:14:35;100676.09;;;12.09;100.00
59170;BME280;52474;52.236;5.114;2022-11-15T09:17:19;100677.63;;;12.02;100.00
59170;BME280;52474;52.236;5.114;2022-11-15T09:20:03;100676.00;;;11.81;100.00
59170;BME280;52474;52.236;5.114;2022-11-15T09:22:48;100664.44;;;11.53;100.00
59170;BME280;52474;52.236;5.114;2022-11-15T09:25:33;100670.31;;;11.37;100.00
59170;BME280;52474;52.236;5.114;2022-11-15T09:28:17;100657.78;;;11.20;100.00
59170;BME280;52474;52.236;5.114;2022-11-15T09:31:04;100659.72;;;11.47;100.00
59170;BME280;52474;52.236;5.114;2022-11-15T09:33:49;100656.47;;;11.63;100.00
59170;BME280;52474;52.236;5.114;2022-11-15T09:36:34;100658.59;;;11.59;100.00
59170;BME280;52474;52.236;5.114;2022-11-15T09:39:19;100655.03;;;11.88;100.00
59170;BME280;52474;52.236;5.114;2022-11-15T09:42:24;100652.59;;;13.85;100.00
59170;BME280;52474;52.236;5.114;2022-11-15T09:45:23;100640.03;;;18.40;100.00
59170;BME280;52474;52.236;5.114;2022-11-15T09:51:04;100638.03;;;19.43;100.00
59170;BME280;52474;52.236;5.114;2022-11-15T09:56:36;100638.59;;;17.41;100.00
59170;BME280;52474;52.236;5.114;2022-11-15T10:03:12;100640.44;;;18.22;100.00
59170;BME280;52474;52.236;5.114;2022-11-15T10:05:08;100636.28;;;13.54;100.00
59170;BME280;52474;52.236;5.114;2022-11-15T10:10:31;100632.19;;;14.28;100.00
59170;BME280;52474;52.236;5.114;2022-11-15T10:13:01;100631.88;;;13.97;100.00
59170;BME280;52474;52.236;5.114;2022-11-15T10:15:28;100604.72;;;15.52;100.00
59170;BME280;52474;52.236;5.114;2022-11-15T10:20:40;100628.53;;;13.43;100.00
59170;BME280;52474;52.236;5.114;2022-11-15T10:23:13;100617.00;;;13.86;100.00
59170;BME280;52474;52.236;5.114;2022-11-15T10:25:39;100607.19;;;12.63;100.00
59170;BME280;52474;52.236;5.114;2022-11-15T10:28:25;100615.34;;;12.97;100.00
59170;BME280;52474;52.236;5.114;2022-11-15T10:30:54;100608.00;;;14.22;100.00
59170;BME280;52474;52.236;5.114;2022-11-15T10:33:38;100592.16;;;15.85;100.00
59170;BME280;52474;52.236;5.114;2022-11-15T10:41:21;100579.91;;;15.99;100.00
59170;BME280;52474;52.236;5.114;2022-11-15T10:46:29;100567.22;;;18.37;100.00
59170;BME280;52474;52.236;5.114;2022-11-15T10:49:12;100563.34;;;19.04;100.00
59170;BME280;52474;52.236;5.114;2022-11-15T10:51:54;100548.66;;;19.84;100.00
59170;BME280;52474;52.236;5.114;2022-11-15T10:54:40;100554.34;;;21.31;100.00
59170;BME280;52474;52.236;5.114;2022-11-15T10:57:14;100548.25;;;20.42;100.00
59170;BME280;52474;52.236;5.114;2022-11-15T10:59:46;100548.28;;;19.03;100.00
59170;BME280;52474;52.236;5.114;2022-11-15T11:07:59;100552.16;;;20.26;100.00
59170;BME280;52474;52.236;5.114;2022-11-15T11:10:27;100534.75;;;21.95;100.00
59170;BME280;52474;52.236;5.114;2022-11-15T11:12:53;100543.28;;;20.39;100.00
59170;BME280;52474;52.236;5.114;2022-11-15T11:15:19;100530.53;;;22.58;100.00
59170;BME280;52474;52.236;5.114;2022-11-15T11:18:01;100540.72;;;21.39;100.00
59170;BME280;52474;52.236;5.114;2022-11-15T11:20:37;100540.97;;;19.81;100.00
59170;BME280;52474;52.236;5.114;2022-11-15T11:26:59;100535.88;;;16.26;100.00
59170;BME280;52474;52.236;5.114;2022-11-15T11:29:25;100539.31;;;16.12;100.00
59170;BME280;52474;52.236;5.114;2022-11-15T11:37:24;100534.91;;;16.50;100.00
59170;BME280;52474;52.236;5.114;2022-11-15T11:40:20;100513.75;;;15.62;100.00
59170;BME280;52474;52.236;5.114;2022-11-15T11:48:13;100515.66;;;15.53;100.00
59170;BME280;52474;52.236;5.114;2022-11-15T11:50:41;100512.97;;;15.45;100.00
59170;BME280;52474;52.236;5.114;2022-11-15T11:53:43;100511.75;;;15.80;100.00
59170;BME280;52474;52.236;5.114;2022-11-15T11:56:29;100492.34;;;15.22;100.00
59170;BME280;52474;52.236;5.114;2022-11-15T11:59:13;100482.56;;;14.74;100.00
59170;BME280;52474;52.236;5.114;2022-11-15T12:01:42;100472.69;;;14.25;100.00
59170;BME280;52474;52.236;5.114;2022-11-15T12:09:44;100459.72;;;14.47;100.00
59170;BME280;52474;52.236;5.114;2022-11-15T12:15:12;100448.56;;;13.68;100.00
59170;BME280;52474;52.236;5.114;2022-11-15T12:17:41;100446.38;;;14.22;100.00
59170;BME280;52474;52.236;5.114;2022-11-15T12:20:16;100439.00;;;13.91;100.00
59170;BME280;52474;52.236;5.114;2022-11-15T12:23:03;100445.34;;;13.48;100.00
59170;BME280;52474;52.236;5.114;2022-11-15T12:25:40;100427.84;;;13.37;100.00
59170;BME280;52474;52.236;5.114;2022-11-15T12:30:44;100432.19;;;13.97;100.00
59170;BME280;52474;52.236;5.114;2022-11-15T12:33:48;100424.34;;;13.79;100.00
59170;BME280;52474;52.236;5.114;2022-11-15T12:41:27;100419.28;;;14.68;100.00
59170;BME280;52474;52.236;5.114;2022-11-15T12:43:54;100412.13;;;16.26;100.00
59170;BME280;52474;52.236;5.114;2022-11-15T13:02:33;100366.16;;;14.25;100.00
59170;BME280;52474;52.236;5.114;2022-11-15T13:17:45;100358.56;;;13.47;100.00
59170;BME280;52474;52.236;5.114;2022-11-15T13:22:40;100353.03;;;13.40;100.00
59170;BME280;52474;52.236;5.114;2022-11-15T13:27:50;100339.59;;;13.07;100.00
59170;BME280;52474;52.236;5.114;2022-11-15T13:30:23;100330.19;;;12.87;100.00
59170;BME280;52474;52.236;5.114;2022-11-15T13:32:50;100335.06;;;12.65;100.00
59170;BME280;52474;52.236;5.114;2022-11-15T13:35:23;100325.72;;;12.61;100.00
59170;BME280;52474;52.236;5.114;2022-11-15T13:37:50;100315.56;;;12.57;100.00
59170;BME280;52474;52.236;5.114;2022-11-15T13:40:23;100326.53;;;12.54;100.00
59170;BME280;52474;52.236;5.114;2022-11-15T13:42:49;100322.59;;;12.40;100.00
59170;BME280;52474;52.236;5.114;2022-11-15T13:45:18;100302.78;;;12.26;100.00
59170;BME280;52474;52.236;5.114;2022-11-15T13:47:44;100311.34;;;12.20;100.00
59170;BME280;52474;52.236;5.114;2022-11-15T13:50:16;100315.19;;;12.25;100.00
59170;BME280;52474;52.236;5.114;2022-11-15T13:52:43;100300.00;;;12.10;100.00
59170;BME280;52474;52.236;5.114;2022-11-15T13:55:19;100301.81;;;12.09;100.00
59170;BME280;52474;52.236;5.114;2022-11-15T13:57:50;100305.75;;;12.05;100.00
59170;BME280;52474;52.236;5.114;2022-11-15T14:02:51;100274.38;;;11.82;100.00
59170;BME280;52474;52.236;5.114;2022-11-15T14:05:20;100278.91;;;11.72;100.00
59170;BME280;52474;52.236;5.114;2022-11-15T14:08:11;100278.28;;;11.78;100.00
59170;BME280;52474;52.236;5.114;2022-11-15T14:10:39;100269.28;;;11.71;100.00
59170;BME280;52474;52.236;5.114;2022-11-15T14:13:26;100291.50;;;11.70;100.00
59170;BME280;52474;52.236;5.114;2022-11-15T14:15:52;100273.00;;;11.60;100.00
59170;BME280;52474;52.236;5.114;2022-11-15T14:18:41;100278.00;;;11.64;100.00
59170;BME280;52474;52.236;5.114;2022-11-15T14:21:08;100273.16;;;11.59;100.00
59170;BME280;52474;52.236;5.114;2022-11-15T14:23:34;100252.69;;;11.51;100.00
59170;BME280;52474;52.236;5.114;2022-11-15T14:26:03;100243.97;;;11.41;100.00
59170;BME280;52474;52.236;5.114;2022-11-15T14:28:31;100253.38;;;11.53;100.00
59170;BME280;52474;52.236;5.114;2022-11-15T14:30:59;100244.72;;;11.51;100.00
59170;BME280;52474;52.236;5.114;2022-11-15T14:33:27;100256.66;;;11.47;100.00
59170;BME280;52474;52.236;5.114;2022-11-15T14:35:55;100242.25;;;11.50;100.00
59170;BME280;52474;52.236;5.114;2022-11-15T14:38:23;100253.81;;;11.49;100.00
59170;BME280;52474;52.236;5.114;2022-11-15T14:40:49;100234.75;;;11.45;100.00
59170;BME280;52474;52.236;5.114;2022-11-15T14:43:16;100220.28;;;11.39;100.00
59170;BME280;52474;52.236;5.114;2022-11-15T14:45:42;100234.75;;;11.45;100.00
59170;BME280;52474;52.236;5.114;2022-11-15T14:48:08;100226.25;;;11.42;100.00
59170;BME280;52474;52.236;5.114;2022-11-15T14:50:34;100215.28;;;11.36;100.00
59170;BME280;52474;52.236;5.114;2022-11-15T14:53:00;100223.22;;;11.36;100.00
59170;BME280;52474;52.236;5.114;2022-11-15T14:55:27;100199.44;;;11.27;100.00
59170;BME280;52474;52.236;5.114;2022-11-15T14:58:00;100212.09;;;11.33;100.00
59170;BME280;52474;52.236;5.114;2022-11-15T15:00:31;100204.97;;;11.33;100.00
59170;BME280;52474;52.236;5.114;2022-11-15T15:02:57;100207.75;;;11.32;100.00
59170;BME280;52474;52.236;5.114;2022-11-15T15:05:41;100183.00;;;11.23;100.00
59170;BME280;52474;52.236;5.114;2022-11-15T15:08:08;100172.88;;;11.18;100.00
59170;BME280;52474;52.236;5.114;2022-11-15T15:10:40;100194.31;;;11.25;100.00
59170;BME280;52474;52.236;5.114;2022-11-15T15:13:25;100181.50;;;11.21;100.00
59170;BME280;52474;52.236;5.114;2022-11-15T15:15:51;100177.53;;;11.25;100.00
59170;BME280;52474;52.236;5.114;2022-11-15T15:18:18;100174.06;;;11.24;100.00
59170;BME280;52474;52.236;5.114;2022-11-15T15:20:49;100150.28;;;11.14;100.00
59170;BME280;52474;52.236;5.114;2022-11-15T15:23:20;100166.13;;;11.24;100.00
59170;BME280;52474;52.236;5.114;2022-11-15T15:25:47;100160.66;;;11.26;100.00
59170;BME280;52474;52.236;5.114;2022-11-15T15:28:14;100155.97;;;11.20;100.00
59170;BME280;52474;52.236;5.114;2022-11-15T15:30:41;100134.84;;;11.10;100.00
59170;BME280;52474;52.236;5.114;2022-11-15T15:33:06;100145.53;;;11.18;100.00
59170;BME280;52474;52.236;5.114;2022-11-15T15:35:34;100144.53;;;11.19;100.00
59170;BME280;52474;52.236;5.114;2022-11-15T15:38:00;100142.88;;;11.18;100.00
59170;BME280;52474;52.236;5.114;2022-11-15T15:40:28;100136.06;;;11.15;100.00
59170;BME280;52474;52.236;5.114;2022-11-15T15:42:54;100135.91;;;11.17;100.00
59170;BME280;52474;52.236;5.114;2022-11-15T15:45:20;100136.44;;;11.21;100.00
59170;BME280;52474;52.236;5.114;2022-11-15T15:47:47;100135.00;;;11.26;100.00
59170;BME280;52474;52.236;5.114;2022-11-15T15:50:31;100131.97;;;11.21;100.00
59170;BME280;52474;52.236;5.114;2022-11-15T15:52:59;100118.72;;;11.21;100.00
59170;BME280;52474;52.236;5.114;2022-11-15T15:55:26;100111.22;;;11.16;100.00
59170;BME280;52474;52.236;5.114;2022-11-15T15:57:52;100134.84;;;11.28;100.00